createdAt,value
2023-03-28T00:01:11.127Z,1.03
2023-03-28T00:03:42.488Z,1.27
2023-03-28T00:06:18.832Z,1.10
2023-03-28T00:08:47.705Z,1.00
2023-03-28T00:11:21.861Z,1.00
2023-03-28T00:14:00.834Z,1.20
2023-03-28T00:16:33.061Z,1.60
2023-03-28T00:19:05.772Z,1.00
2023-03-28T00:21:39.794Z,1.00
2023-03-28T00:24:13.800Z,1.47
2023-03-28T00:26:44.098Z,1.10
2023-03-28T00:29:16.488Z,1.00
2023-03-28T00:31:43.318Z,1.20
2023-03-28T00:34:10.396Z,1.27
2023-03-28T00:36:39.319Z,1.10
2023-03-28T00:39:06.744Z,1.00
2023-03-28T00:41:39.799Z,1.10
2023-03-28T00:44:48.795Z,2.30
2023-03-28T00:47:45.779Z,1.20
2023-03-28T00:50:31.026Z,1.17
2023-03-28T00:53:09.881Z,1.30
2023-03-28T00:55:42.486Z,1.33
2023-03-28T00:58:17.500Z,1.10
2023-03-28T01:00:49.086Z,1.27
2023-03-28T01:03:19.173Z,1.10
2023-03-28T01:05:47.893Z,1.30
2023-03-28T01:08:23.525Z,1.00
2023-03-28T01:10:50.722Z,1.20
2023-03-28T01:13:24.633Z,1.20
2023-03-28T01:15:51.540Z,1.60
2023-03-28T01:18:22.832Z,2.03
2023-03-28T01:21:07.826Z,1.20
2023-03-28T01:24:17.829Z,1.23
2023-03-28T01:27:09.563Z,1.33
2023-03-28T01:30:01.594Z,1.13
2023-03-28T01:32:51.405Z,1.10
2023-03-28T01:35:39.182Z,1.13
2023-03-28T01:38:39.331Z,1.60
2023-03-28T01:41:45.703Z,1.20
2023-03-28T01:44:38.422Z,1.43
2023-03-28T01:47:31.423Z,1.07
2023-03-28T01:50:30.470Z,1.27
2023-03-28T01:53:25.361Z,1.27
2023-03-28T01:56:09.746Z,1.10
2023-03-28T01:58:53.731Z,1.00
2023-03-28T02:01:50.182Z,1.00
2023-03-28T02:04:22.062Z,1.23
2023-03-28T02:06:52.458Z,1.10
2023-03-28T02:09:24.830Z,1.20
2023-03-28T02:12:10.137Z,1.00
2023-03-28T02:14:43.903Z,1.00
2023-03-28T02:17:16.092Z,1.30
2023-03-28T02:19:52.421Z,1.00
2023-03-28T02:22:32.295Z,1.00
2023-03-28T02:24:59.179Z,1.10
2023-03-28T02:27:26.063Z,1.57
2023-03-28T02:29:56.937Z,1.03
2023-03-28T02:32:23.855Z,1.10
2023-03-28T02:34:55.220Z,1.57
2023-03-28T02:37:54.746Z,0.90
2023-03-28T02:40:36.210Z,0.97
2023-03-28T02:43:47.488Z,1.00
2023-03-28T02:46:31.701Z,1.43
2023-03-28T02:49:49.463Z,2.33
2023-03-28T02:52:59.657Z,1.40
2023-03-28T02:56:02.063Z,1.70
2023-03-28T02:58:59.809Z,1.40
2023-03-28T03:01:29.858Z,1.50
2023-03-28T03:03:58.401Z,1.13
2023-03-28T03:06:25.423Z,1.00
2023-03-28T03:08:52.315Z,1.33
2023-03-28T03:11:20.027Z,1.23
2023-03-28T03:13:48.835Z,1.23
2023-03-28T03:16:16.037Z,1.17
2023-03-28T03:18:48.949Z,1.43
2023-03-28T03:21:16.001Z,1.13
2023-03-28T03:23:42.686Z,1.53
2023-03-28T03:26:09.546Z,1.40
2023-03-28T03:28:36.345Z,1.47
2023-03-28T03:31:03.335Z,1.30
2023-03-28T03:33:31.945Z,1.30
2023-03-28T03:35:59.643Z,1.57
2023-03-28T03:38:26.654Z,1.30
2023-03-28T03:40:53.403Z,1.33
2023-03-28T03:43:20.685Z,1.93
2023-03-28T03:45:47.632Z,1.47
2023-03-28T03:48:14.383Z,2.10
2023-03-28T03:50:41.376Z,1.20
2023-03-28T03:53:08.431Z,1.70
2023-03-28T03:55:38.792Z,1.43
2023-03-28T03:58:05.918Z,1.80
2023-03-28T04:00:33.047Z,1.60
2023-03-28T04:02:59.866Z,1.47
2023-03-28T04:05:27.391Z,1.60
2023-03-28T04:07:54.213Z,1.50
2023-03-28T04:10:21.140Z,1.90
2023-03-28T04:12:47.910Z,1.50
2023-03-28T04:15:14.904Z,1.33
2023-03-28T04:17:44.503Z,1.53
2023-03-28T04:20:11.950Z,1.90
2023-03-28T04:22:45.266Z,1.63
2023-03-28T04:25:14.003Z,1.70
2023-03-28T04:27:48.799Z,1.70
2023-03-28T04:30:36.216Z,2.23
2023-03-28T04:33:11.246Z,1.90
2023-03-28T04:35:37.978Z,2.00
2023-03-28T04:38:04.771Z,1.53
2023-03-28T04:40:31.528Z,1.90
2023-03-28T04:42:58.252Z,2.10
2023-03-28T04:45:26.318Z,2.40
2023-03-28T04:47:53.795Z,1.80
2023-03-28T04:50:20.794Z,1.70
2023-03-28T04:52:47.582Z,2.57
2023-03-28T04:55:15.996Z,2.07
2023-03-28T04:57:45.379Z,2.53
2023-03-28T05:00:16.575Z,2.10
2023-03-28T05:02:43.534Z,2.20
2023-03-28T05:05:10.315Z,2.27
2023-03-28T05:07:37.030Z,1.93
2023-03-28T05:10:04.877Z,2.10
2023-03-28T05:12:31.677Z,1.90
2023-03-28T05:14:58.440Z,2.20
2023-03-28T05:17:25.243Z,2.20
2023-03-28T05:19:52.009Z,1.77
2023-03-28T05:22:19.076Z,2.20
2023-03-28T05:24:47.181Z,2.00
2023-03-28T05:27:14.095Z,2.00
2023-03-28T05:29:40.810Z,2.07
2023-03-28T05:32:07.697Z,1.83
2023-03-28T05:34:35.960Z,2.00
2023-03-28T05:37:02.930Z,1.97
2023-03-28T05:39:29.691Z,1.70
2023-03-28T05:42:02.572Z,1.77
2023-03-28T05:44:29.408Z,2.10
2023-03-28T05:46:56.159Z,1.93
2023-03-28T05:49:23.113Z,1.80
2023-03-28T05:51:49.935Z,1.80
2023-03-28T05:54:17.068Z,1.83
2023-03-28T05:56:45.285Z,2.20
2023-03-28T05:59:12.502Z,1.93
2023-03-28T06:01:41.947Z,2.00
2023-03-28T06:04:10.667Z,1.93
2023-03-28T06:06:37.443Z,2.00
2023-03-28T06:09:04.850Z,2.47
2023-03-28T06:11:31.961Z,2.07
2023-03-28T06:13:58.720Z,1.90
2023-03-28T06:16:30.517Z,2.03
2023-03-28T06:19:10.362Z,2.17
2023-03-28T06:21:43.760Z,1.90
2023-03-28T06:24:13.484Z,1.70
2023-03-28T06:26:40.263Z,2.03
2023-03-28T06:29:07.144Z,1.97
2023-03-28T06:31:34.478Z,2.03
2023-03-28T06:34:01.320Z,2.17
2023-03-28T06:36:28.042Z,1.90
2023-03-28T06:38:54.890Z,2.00
2023-03-28T06:41:21.824Z,2.30
2023-03-28T06:43:49.052Z,2.43
2023-03-28T06:46:16.818Z,2.30
2023-03-28T06:48:43.677Z,2.23
2023-03-28T06:51:13.062Z,2.53
2023-03-28T06:53:39.842Z,2.87
2023-03-28T06:56:07.585Z,2.50
2023-03-28T06:58:34.364Z,2.93
2023-03-28T07:01:01.782Z,3.63
2023-03-28T07:03:30.226Z,3.30
2023-03-28T07:05:57.375Z,2.43
2023-03-28T07:08:24.913Z,3.00
2023-03-28T07:10:51.619Z,2.77
2023-03-28T07:13:18.456Z,2.73
2023-03-28T07:15:45.345Z,2.93
2023-03-28T07:18:12.335Z,2.60
2023-03-28T07:20:40.713Z,2.63
2023-03-28T07:23:07.646Z,3.27
2023-03-28T07:25:34.931Z,2.50
2023-03-28T07:28:01.694Z,3.03
2023-03-28T07:30:28.513Z,2.90
2023-03-28T07:33:06.466Z,2.83
2023-03-28T07:35:42.068Z,2.90
2023-03-28T07:38:09.943Z,3.57
2023-03-28T07:40:36.968Z,3.67
2023-03-28T07:43:06.444Z,2.77
2023-03-28T07:45:33.144Z,2.97
2023-03-28T07:47:59.991Z,3.20
2023-03-28T07:50:27.082Z,3.00
2023-03-28T07:52:57.576Z,3.57
2023-03-28T07:55:28.736Z,3.50
2023-03-28T07:57:55.657Z,3.13
2023-03-28T08:00:24.117Z,3.53
2023-03-28T08:02:52.046Z,3.00
2023-03-28T08:05:19.039Z,3.37
2023-03-28T08:07:52.271Z,3.03
2023-03-28T08:10:19.531Z,3.03
2023-03-28T08:12:46.304Z,2.83
2023-03-28T08:15:13.129Z,2.80
2023-03-28T08:17:40.027Z,3.07
2023-03-28T08:20:11.326Z,2.97
2023-03-28T08:22:38.211Z,2.67
2023-03-28T08:25:06.553Z,2.80
2023-03-28T08:27:33.912Z,2.57
2023-03-28T08:30:00.967Z,2.50
2023-03-28T08:32:28.026Z,2.33
2023-03-28T08:34:55.517Z,2.37
2023-03-28T08:37:22.422Z,1.80
2023-03-28T08:39:49.208Z,1.70
2023-03-28T08:42:37.535Z,1.80
2023-03-28T08:45:26.881Z,2.28
2023-03-28T08:48:05.259Z,1.38
2023-03-28T08:50:39.198Z,1.83
2023-03-28T08:53:38.921Z,1.70
2023-03-28T08:56:08.466Z,1.40
2023-03-28T08:59:10.871Z,2.13
2023-03-28T09:01:37.666Z,1.35
2023-03-28T09:04:06.046Z,1.58
2023-03-28T09:06:42.401Z,1.63
2023-03-28T09:09:53.240Z,1.77
2023-03-28T09:12:22.776Z,1.80
2023-03-28T09:15:16.688Z,1.30
2023-03-28T09:18:14.591Z,2.03
2023-03-28T09:21:25.650Z,1.50
2023-03-28T09:24:28.574Z,1.67
2023-03-28T09:27:15.776Z,1.90
2023-03-28T09:29:45.624Z,1.23
2023-03-28T09:32:32.997Z,1.20
2023-03-28T09:35:00.814Z,1.30
2023-03-28T09:37:43.215Z,1.50
2023-03-28T09:40:24.981Z,1.60
2023-03-28T09:43:20.792Z,2.03
2023-03-28T09:46:13.424Z,1.67
2023-03-28T09:48:41.019Z,1.27
2023-03-28T09:51:16.877Z,1.00
2023-03-28T09:53:44.146Z,1.60
2023-03-28T09:56:28.243Z,1.47
2023-03-28T09:59:02.410Z,1.57
2023-03-28T10:01:50.629Z,1.50
2023-03-28T10:04:31.061Z,1.60
2023-03-28T10:07:29.190Z,1.83
2023-03-28T10:09:58.628Z,3.30
2023-03-28T10:12:38.515Z,1.70
2023-03-28T10:15:08.821Z,2.00
2023-03-28T10:17:38.061Z,1.83
2023-03-28T10:20:21.663Z,1.53
2023-03-28T10:22:54.723Z,1.77
2023-03-28T10:25:30.126Z,1.50
2023-03-28T10:28:00.510Z,1.37
2023-03-28T10:30:30.878Z,1.40
2023-03-28T10:33:30.532Z,2.63
2023-03-28T10:36:10.766Z,1.70
2023-03-28T10:38:49.690Z,1.70
2023-03-28T10:41:25.361Z,2.00
2023-03-28T10:43:54.596Z,1.87
2023-03-28T10:46:30.754Z,1.50
2023-03-28T10:49:12.306Z,1.60
2023-03-28T10:51:44.680Z,2.00
2023-03-28T10:55:04.355Z,1.20
2023-03-28T10:57:47.015Z,1.17
2023-03-28T11:00:30.382Z,1.30
2023-03-28T11:03:25.957Z,1.00
2023-03-28T11:06:11.990Z,1.17
2023-03-28T11:09:14.655Z,1.30
2023-03-28T11:12:22.922Z,1.30
2023-03-28T11:15:29.916Z,1.23
2023-03-28T11:18:29.882Z,1.37
2023-03-28T11:21:26.610Z,1.23
2023-03-28T11:24:23.037Z,1.30
2023-03-28T11:26:52.970Z,1.60
2023-03-28T11:29:43.839Z,1.83
2023-03-28T11:32:48.577Z,1.60
2023-03-28T11:35:32.975Z,1.47
2023-03-28T11:38:20.061Z,1.77
2023-03-28T11:41:04.353Z,2.17
2023-03-28T11:43:50.271Z,2.10
2023-03-28T11:46:27.596Z,2.07
2023-03-28T11:49:06.322Z,2.07
2023-03-28T11:51:46.624Z,1.83
2023-03-28T11:54:25.078Z,1.40
2023-03-28T11:57:29.896Z,1.73
2023-03-28T12:03:23.601Z,1.30
2023-03-28T12:06:10.450Z,1.40
2023-03-28T12:08:53.309Z,1.30
2023-03-28T12:11:33.011Z,1.43
2023-03-28T12:14:37.910Z,1.50
2023-03-28T12:17:19.934Z,1.33
2023-03-28T12:19:48.581Z,1.17
2023-03-28T12:22:22.149Z,1.63
2023-03-28T12:25:10.541Z,1.27
2023-03-28T12:27:58.294Z,1.10
2023-03-28T12:31:32.090Z,1.50
2023-03-28T12:34:23.481Z,2.17
2023-03-28T12:37:22.254Z,1.70
2023-03-28T12:40:13.685Z,1.50
2023-03-28T12:42:44.910Z,1.20
2023-03-28T12:45:31.714Z,1.80
2023-03-28T12:48:16.979Z,1.53
2023-03-28T12:51:00.156Z,2.23
2023-03-28T12:53:44.554Z,1.50
2023-03-28T12:56:15.809Z,1.40
2023-03-28T12:58:47.497Z,1.53
2023-03-28T13:01:19.914Z,1.47
2023-03-28T13:04:25.218Z,1.97
2023-03-28T13:07:47.187Z,1.80
2023-03-28T13:10:24.657Z,1.37
2023-03-28T13:13:25.101Z,1.70
2023-03-28T13:16:12.831Z,2.00
2023-03-28T13:19:09.808Z,1.77
2023-03-28T13:21:51.042Z,1.50
2023-03-28T13:24:37.244Z,2.47
2023-03-28T13:27:27.559Z,1.80
2023-03-28T13:30:16.260Z,1.47
2023-03-28T13:32:50.814Z,1.90
2023-03-28T13:36:10.646Z,1.87
2023-03-28T13:38:50.660Z,1.90
2023-03-28T13:41:55.141Z,1.67
2023-03-28T13:44:42.851Z,2.00
2023-03-28T13:47:26.044Z,2.50
2023-03-28T13:50:03.703Z,1.70
2023-03-28T13:52:30.678Z,1.63
2023-03-28T13:55:13.717Z,1.60
2023-03-28T13:57:40.658Z,2.13
2023-03-28T14:00:16.323Z,1.70
2023-03-28T14:02:54.486Z,1.70
2023-03-28T14:05:24.631Z,2.00
2023-03-28T14:07:54.568Z,1.50
2023-03-28T14:10:32.794Z,1.63
2023-03-28T14:13:08.295Z,1.60
2023-03-28T14:15:41.772Z,1.77
2023-03-28T14:18:37.131Z,3.07
2023-03-28T14:21:07.649Z,1.60
2023-03-28T14:24:00.125Z,1.70
2023-03-28T14:26:31.899Z,2.00
2023-03-28T14:29:11.345Z,3.47
2023-03-28T14:31:41.947Z,1.97
2023-03-28T14:34:24.013Z,1.90
2023-03-28T14:36:59.398Z,1.17
2023-03-28T14:39:35.756Z,2.27
2023-03-28T14:42:07.002Z,1.63
2023-03-28T14:44:42.258Z,1.70
2023-03-28T14:47:30.754Z,1.40
2023-03-28T14:49:58.215Z,1.50
2023-03-28T14:52:37.117Z,1.40
2023-03-28T14:55:06.115Z,1.60
2023-03-28T14:57:34.413Z,2.07
2023-03-28T15:00:12.273Z,1.73
2023-03-28T15:02:42.008Z,1.40
2023-03-28T15:05:15.547Z,1.40
2023-03-28T15:07:45.042Z,1.80
2023-03-28T15:10:20.890Z,2.07
2023-03-28T15:13:06.962Z,2.00
2023-03-28T15:15:38.207Z,1.60
2023-03-28T15:18:12.420Z,1.67
2023-03-28T15:20:45.497Z,1.63
2023-03-28T15:23:26.953Z,1.50
2023-03-28T15:25:54.916Z,1.50
2023-03-28T15:28:22.453Z,1.83
2023-03-28T15:30:50.118Z,1.47
2023-03-28T15:33:24.598Z,1.77
2023-03-28T15:36:29.818Z,1.73
2023-03-28T15:39:23.303Z,2.10
2023-03-28T15:42:19.731Z,1.57
2023-03-28T15:45:37.467Z,1.60
2023-03-28T15:48:05.083Z,1.60
2023-03-28T15:50:38.511Z,1.80
2023-03-28T15:53:12.679Z,1.70
2023-03-28T15:55:41.836Z,1.97
2023-03-28T15:58:15.981Z,2.00
2023-03-28T16:00:54.162Z,2.27
2023-03-28T16:03:21.142Z,1.90
2023-03-28T16:06:30.817Z,2.10
2023-03-28T16:09:17.295Z,1.50
2023-03-28T16:12:04.486Z,1.60
2023-03-28T16:14:31.393Z,2.00
2023-03-28T16:16:58.270Z,1.80
2023-03-28T16:19:28.528Z,1.90
2023-03-28T16:21:56.757Z,2.73
2023-03-28T16:24:25.522Z,1.83
2023-03-28T16:26:54.606Z,1.90
2023-03-28T16:29:21.422Z,1.90
2023-03-28T16:31:48.626Z,2.27
2023-03-28T16:34:15.509Z,2.33
2023-03-28T16:36:42.229Z,2.87
2023-03-28T16:39:11.073Z,3.73
2023-03-28T16:41:37.979Z,5.33
2023-03-28T16:44:05.067Z,2.93
2023-03-28T16:46:31.956Z,2.80
2023-03-28T16:48:58.768Z,2.93
2023-03-28T16:51:26.113Z,2.53
2023-03-28T16:53:52.893Z,2.67
2023-03-28T16:56:20.093Z,2.57
2023-03-28T16:58:46.978Z,2.23
2023-03-28T17:01:35.708Z,2.03
2023-03-28T17:04:03.395Z,2.23
2023-03-28T17:06:30.260Z,2.30
2023-03-28T17:08:58.629Z,1.90
2023-03-28T17:11:28.006Z,2.20
2023-03-28T17:13:55.246Z,1.97
2023-03-28T17:16:23.591Z,2.17
2023-03-28T17:18:51.133Z,2.20
2023-03-28T17:21:19.584Z,2.10
2023-03-28T17:23:48.974Z,3.63
2023-03-28T17:26:17.131Z,2.13
2023-03-28T17:28:44.774Z,2.20
2023-03-28T17:31:16.952Z,2.57
2023-03-28T17:33:46.076Z,3.53
2023-03-28T17:36:27.153Z,2.17
2023-03-28T17:38:57.752Z,2.30
2023-03-28T17:41:30.001Z,2.23
2023-03-28T17:43:57.921Z,2.53
2023-03-28T17:46:27.951Z,2.63
2023-03-28T17:48:55.046Z,2.10
2023-03-28T17:51:23.030Z,2.40
2023-03-28T17:53:50.455Z,2.27
2023-03-28T17:56:17.696Z,2.27
2023-03-28T17:58:45.330Z,2.57
2023-03-28T18:01:16.882Z,2.07
2023-03-28T18:03:45.783Z,2.43
2023-03-28T18:06:14.008Z,2.13
2023-03-28T18:08:42.630Z,2.67
2023-03-28T18:11:14.508Z,2.50
2023-03-28T18:13:42.397Z,2.17
2023-03-28T18:16:13.699Z,2.20
2023-03-28T18:18:41.454Z,2.50
2023-03-28T18:21:11.155Z,2.80
2023-03-28T18:23:37.970Z,2.23
2023-03-28T18:26:06.932Z,2.40
2023-03-28T18:28:42.981Z,2.17
2023-03-28T18:31:15.545Z,2.60
2023-03-28T18:33:46.523Z,2.63
2023-03-28T18:36:14.382Z,2.10
2023-03-28T18:38:44.069Z,2.27
2023-03-28T18:41:12.694Z,2.17
2023-03-28T18:43:42.064Z,2.53
2023-03-28T18:48:40.740Z,3.33
2023-03-28T18:51:08.531Z,2.30
2023-03-28T18:53:38.081Z,3.03
2023-03-28T18:56:10.280Z,2.47
2023-03-28T18:58:39.870Z,2.90
2023-03-28T19:01:10.095Z,2.97
2023-03-28T19:03:40.355Z,2.73
2023-03-28T19:06:12.831Z,2.27
2023-03-28T19:08:43.833Z,2.80
2023-03-28T19:11:14.931Z,3.10
2023-03-28T19:13:42.406Z,3.00
2023-03-28T19:16:16.070Z,3.00
2023-03-28T19:18:46.675Z,2.60
2023-03-28T19:21:14.813Z,2.90
2023-03-28T19:23:41.769Z,2.53
2023-03-28T19:26:12.392Z,2.77
2023-03-28T19:28:39.563Z,2.80
2023-03-28T19:31:09.532Z,2.70
2023-03-28T19:33:38.244Z,3.40
2023-03-28T19:36:06.630Z,3.30
2023-03-28T19:38:36.384Z,2.60
2023-03-28T19:41:14.441Z,2.93
2023-03-28T19:43:42.546Z,2.50
2023-03-28T19:46:18.895Z,2.63
2023-03-28T19:48:45.775Z,2.43
2023-03-28T19:51:14.514Z,2.40
2023-03-28T19:53:47.277Z,2.40
2023-03-28T19:56:22.905Z,2.10
2023-03-28T19:58:51.918Z,2.77
2023-03-28T20:01:31.303Z,2.37
2023-03-28T20:04:01.200Z,2.70
2023-03-28T20:06:28.081Z,1.80
2023-03-28T20:08:56.251Z,1.70
2023-03-28T20:11:23.117Z,2.07
2023-03-28T20:13:49.822Z,1.73
2023-03-28T20:16:16.973Z,1.80
2023-03-28T20:18:44.142Z,1.90
2023-03-28T20:21:13.204Z,1.73
2023-03-28T20:23:41.007Z,2.00
2023-03-28T20:26:21.889Z,1.90
2023-03-28T20:28:56.268Z,1.70
2023-03-28T20:31:23.612Z,2.83
2023-03-28T20:33:53.243Z,1.80
2023-03-28T20:36:22.413Z,2.13
2023-03-28T20:38:49.683Z,1.67
2023-03-28T20:41:18.703Z,2.00
2023-03-28T20:43:50.217Z,1.73
2023-03-28T20:46:19.384Z,1.67
2023-03-28T20:48:57.011Z,1.33
2023-03-28T20:51:23.775Z,1.60
2023-03-28T20:53:59.990Z,2.00
2023-03-28T20:56:32.008Z,1.80
2023-03-28T20:58:59.654Z,1.90
2023-03-28T21:01:30.131Z,1.70
2023-03-28T21:04:01.695Z,1.77
2023-03-28T21:06:36.842Z,1.90
2023-03-28T21:09:13.422Z,2.10
2023-03-28T21:11:40.827Z,1.60
2023-03-28T21:14:13.687Z,1.90
2023-03-28T21:16:41.044Z,1.50
2023-03-28T21:19:08.117Z,1.60
2023-03-28T21:21:35.489Z,1.97
2023-03-28T21:24:04.594Z,1.80
2023-03-28T21:26:32.004Z,1.40
2023-03-28T21:28:59.258Z,1.37
2023-03-28T21:31:29.227Z,1.50
2023-03-28T21:33:58.878Z,1.53
2023-03-28T21:36:27.066Z,1.43
2023-03-28T21:38:54.896Z,1.60
2023-03-28T21:41:22.585Z,1.37
2023-03-28T21:43:50.159Z,1.50
2023-03-28T21:46:18.357Z,1.40
2023-03-28T21:48:48.543Z,1.70
2023-03-28T21:51:17.594Z,1.80
2023-03-28T21:53:45.673Z,1.60
2023-03-28T21:56:14.449Z,2.23
2023-03-28T21:58:41.749Z,1.60
2023-03-28T22:01:13.673Z,1.70
2023-03-28T22:03:40.655Z,1.80
2023-03-28T22:06:08.122Z,1.60
2023-03-28T22:08:34.979Z,1.47
2023-03-28T22:11:03.238Z,1.43
2023-03-28T22:13:30.529Z,1.43
2023-03-28T22:16:00.589Z,1.50
2023-03-28T22:18:28.053Z,1.50
2023-03-28T22:20:55.220Z,1.77
2023-03-28T22:23:24.719Z,1.67
2023-03-28T22:25:53.307Z,1.37
2023-03-28T22:28:24.351Z,1.20
2023-03-28T22:30:55.053Z,1.57
2023-03-28T22:33:23.470Z,1.50
2023-03-28T22:35:50.450Z,1.50
2023-03-28T22:38:19.254Z,1.30
2023-03-28T22:40:47.649Z,1.20
2023-03-28T22:43:16.415Z,1.57
2023-03-28T22:45:43.610Z,1.40
2023-03-28T22:48:14.778Z,1.40
2023-03-28T22:50:46.369Z,1.67
2023-03-28T22:53:14.589Z,1.40
2023-03-28T22:55:43.621Z,1.17
2023-03-28T22:58:11.902Z,1.73
2023-03-28T23:00:41.244Z,1.30
2023-03-28T23:03:08.318Z,1.50
2023-03-28T23:05:36.752Z,1.60
2023-03-28T23:08:06.284Z,1.47
2023-03-28T23:10:34.802Z,1.60
2023-03-28T23:13:01.790Z,1.40
2023-03-28T23:15:28.632Z,1.40
2023-03-28T23:17:56.362Z,1.63
2023-03-28T23:20:24.594Z,1.47
2023-03-28T23:22:51.342Z,1.47
2023-03-28T23:25:19.400Z,1.63
2023-03-28T23:27:46.739Z,1.40
2023-03-28T23:30:16.006Z,1.70
2023-03-28T23:32:43.124Z,1.60
2023-03-28T23:35:10.938Z,1.50
2023-03-28T23:37:38.287Z,1.50
2023-03-28T23:40:14.585Z,1.43
2023-03-28T23:42:44.258Z,1.30
2023-03-28T23:45:15.141Z,1.40
2023-03-28T23:47:43.895Z,1.20
2023-03-28T23:50:11.530Z,1.50
2023-03-28T23:52:38.328Z,1.47
2023-03-28T23:55:07.789Z,1.57
2023-03-28T23:57:34.755Z,1.43
